Morobe, Papua New Guinea
Current Conditions -  °F | °C
As of 1:00 AM on Sunday 26 Oct 2014 (Local Time) from AYPY Reporting Station
Clear Clear  
Wind Chill: 77°   Ceiling: Unl
Heat Index: 78°   Visibility: 6mi
Dew Point: 72°   Wind: 16mph
Humidity: 83%   Direction: 160°SSE
Pressure: 29.85"   Gusts: NA
Location:  7.75°S, 147.62°E
Report Text: AYPY 251500Z 16014KT 9999 SKC 25/22 Q1011 HZ
Loading
Personal Weather Stations






























Interactive Weather Map
Tropical Storm Tracking
New forecast layout! Learn more

10-Day Weather Forecast

Advertisements
Track Severe Weather on mobile